sensor_id;sensor_type;location;lat;lon;timestamp;P1;durP1;ratioP1;P2;durP2;ratioP2
69534;SDS011;56754;51.568;5.048;2022-08-19T00:01:35;6.50;;;3.53;;
69534;SDS011;56754;51.568;5.048;2022-08-19T00:04:05;5.65;;;3.60;;
69534;SDS011;56754;51.568;5.048;2022-08-19T00:06:33;6.45;;;3.30;;
69534;SDS011;56754;51.568;5.048;2022-08-19T00:08:59;5.30;;;3.30;;
69534;SDS011;56754;51.568;5.048;2022-08-19T00:11:25;6.77;;;3.80;;
69534;SDS011;56754;51.568;5.048;2022-08-19T00:13:52;6.03;;;3.40;;
69534;SDS011;56754;51.568;5.048;2022-08-19T00:16:17;6.03;;;3.70;;
69534;SDS011;56754;51.568;5.048;2022-08-19T00:18:42;7.57;;;3.60;;
69534;SDS011;56754;51.568;5.048;2022-08-19T00:21:08;5.63;;;3.60;;
69534;SDS011;56754;51.568;5.048;2022-08-19T00:23:33;6.03;;;3.80;;
69534;SDS011;56754;51.568;5.048;2022-08-19T00:25:58;6.33;;;3.90;;
69534;SDS011;56754;51.568;5.048;2022-08-19T00:28:23;6.10;;;3.63;;
69534;SDS011;56754;51.568;5.048;2022-08-19T00:30:49;6.80;;;3.93;;
69534;SDS011;56754;51.568;5.048;2022-08-19T00:33:14;5.87;;;3.53;;
69534;SDS011;56754;51.568;5.048;2022-08-19T00:35:39;5.93;;;3.83;;
69534;SDS011;56754;51.568;5.048;2022-08-19T00:38:05;6.90;;;4.30;;
69534;SDS011;56754;51.568;5.048;2022-08-19T00:40:30;6.83;;;4.33;;
69534;SDS011;56754;51.568;5.048;2022-08-19T00:42:55;6.75;;;4.30;;
69534;SDS011;56754;51.568;5.048;2022-08-19T00:45:21;6.43;;;3.80;;
69534;SDS011;56754;51.568;5.048;2022-08-19T00:47:48;6.10;;;3.97;;
69534;SDS011;56754;51.568;5.048;2022-08-19T00:50:15;5.63;;;4.00;;
69534;SDS011;56754;51.568;5.048;2022-08-19T00:52:43;7.20;;;4.20;;
69534;SDS011;56754;51.568;5.048;2022-08-19T00:55:19;6.07;;;3.97;;
69534;SDS011;56754;51.568;5.048;2022-08-19T00:57:51;7.32;;;4.05;;
69534;SDS011;56754;51.568;5.048;2022-08-19T01:00:20;7.68;;;4.30;;
69534;SDS011;56754;51.568;5.048;2022-08-19T01:02:47;7.00;;;4.20;;
69534;SDS011;56754;51.568;5.048;2022-08-19T01:05:15;5.93;;;4.00;;
69534;SDS011;56754;51.568;5.048;2022-08-19T01:07:44;5.75;;;4.20;;
69534;SDS011;56754;51.568;5.048;2022-08-19T01:10:12;6.57;;;4.15;;
69534;SDS011;56754;51.568;5.048;2022-08-19T01:12:40;6.97;;;4.18;;
69534;SDS011;56754;51.568;5.048;2022-08-19T01:15:06;7.33;;;4.17;;
69534;SDS011;56754;51.568;5.048;2022-08-19T01:17:35;6.90;;;4.00;;
69534;SDS011;56754;51.568;5.048;2022-08-19T01:20:05;6.93;;;4.15;;
69534;SDS011;56754;51.568;5.048;2022-08-19T01:22:34;6.47;;;4.17;;
69534;SDS011;56754;51.568;5.048;2022-08-19T01:25:08;6.20;;;3.95;;
69534;SDS011;56754;51.568;5.048;2022-08-19T01:27:38;6.83;;;4.03;;
69534;SDS011;56754;51.568;5.048;2022-08-19T01:30:05;7.20;;;4.22;;
69534;SDS011;56754;51.568;5.048;2022-08-19T01:32:31;6.93;;;3.95;;
69534;SDS011;56754;51.568;5.048;2022-08-19T01:34:56;7.77;;;4.47;;
69534;SDS011;56754;51.568;5.048;2022-08-19T01:37:22;6.83;;;4.37;;
69534;SDS011;56754;51.568;5.048;2022-08-19T01:39:47;7.63;;;4.87;;
69534;SDS011;56754;51.568;5.048;2022-08-19T01:42:12;7.00;;;4.00;;
69534;SDS011;56754;51.568;5.048;2022-08-19T01:44:39;8.03;;;4.70;;
69534;SDS011;56754;51.568;5.048;2022-08-19T01:47:04;8.80;;;4.47;;
69534;SDS011;56754;51.568;5.048;2022-08-19T01:49:30;6.10;;;3.97;;
69534;SDS011;56754;51.568;5.048;2022-08-19T01:51:55;7.73;;;4.33;;
69534;SDS011;56754;51.568;5.048;2022-08-19T01:54:22;6.33;;;3.93;;
69534;SDS011;56754;51.568;5.048;2022-08-19T01:56:49;6.13;;;4.20;;
69534;SDS011;56754;51.568;5.048;2022-08-19T01:59:19;8.35;;;4.30;;
69534;SDS011;56754;51.568;5.048;2022-08-19T02:01:48;7.80;;;4.35;;
69534;SDS011;56754;51.568;5.048;2022-08-19T02:04:13;6.30;;;4.20;;
69534;SDS011;56754;51.568;5.048;2022-08-19T02:06:38;6.77;;;4.30;;
69534;SDS011;56754;51.568;5.048;2022-08-19T02:09:04;7.13;;;4.37;;
69534;SDS011;56754;51.568;5.048;2022-08-19T02:11:33;6.68;;;4.43;;
69534;SDS011;56754;51.568;5.048;2022-08-19T02:14:00;6.25;;;4.13;;
69534;SDS011;56754;51.568;5.048;2022-08-19T02:16:27;7.13;;;4.32;;
69534;SDS011;56754;51.568;5.048;2022-08-19T02:18:53;6.37;;;4.37;;
69534;SDS011;56754;51.568;5.048;2022-08-19T02:21:19;6.68;;;4.22;;
69534;SDS011;56754;51.568;5.048;2022-08-19T02:23:47;6.38;;;4.38;;
69534;SDS011;56754;51.568;5.048;2022-08-19T02:26:13;6.83;;;4.33;;
69534;SDS011;56754;51.568;5.048;2022-08-19T02:28:39;7.70;;;4.40;;
69534;SDS011;56754;51.568;5.048;2022-08-19T02:31:09;6.93;;;4.05;;
69534;SDS011;56754;51.568;5.048;2022-08-19T02:33:39;7.72;;;4.68;;
69534;SDS011;56754;51.568;5.048;2022-08-19T02:36:05;6.80;;;4.40;;
69534;SDS011;56754;51.568;5.048;2022-08-19T02:38:31;7.05;;;4.45;;
69534;SDS011;56754;51.568;5.048;2022-08-19T02:41:39;6.00;;;4.30;;
69534;SDS011;56754;51.568;5.048;2022-08-19T02:43:51;6.88;;;4.47;;
69534;SDS011;56754;51.568;5.048;2022-08-19T02:46:17;6.30;;;4.03;;
69534;SDS011;56754;51.568;5.048;2022-08-19T02:48:45;6.80;;;4.60;;
69534;SDS011;56754;51.568;5.048;2022-08-19T02:51:15;7.17;;;4.17;;
69534;SDS011;56754;51.568;5.048;2022-08-19T02:53:47;6.93;;;4.45;;
69534;SDS011;56754;51.568;5.048;2022-08-19T02:56:12;7.35;;;4.50;;
69534;SDS011;56754;51.568;5.048;2022-08-19T02:58:38;6.97;;;4.80;;
69534;SDS011;56754;51.568;5.048;2022-08-19T03:01:04;7.80;;;5.20;;
69534;SDS011;56754;51.568;5.048;2022-08-19T03:03:29;8.10;;;4.77;;
69534;SDS011;56754;51.568;5.048;2022-08-19T03:08:50;7.13;;;4.85;;
69534;SDS011;56754;51.568;5.048;2022-08-19T03:11:17;6.75;;;4.60;;
69534;SDS011;56754;51.568;5.048;2022-08-19T03:13:45;6.82;;;4.70;;
69534;SDS011;56754;51.568;5.048;2022-08-19T03:16:12;8.63;;;5.20;;
69534;SDS011;56754;51.568;5.048;2022-08-19T03:18:37;7.67;;;4.97;;
69534;SDS011;56754;51.568;5.048;2022-08-19T03:21:03;6.65;;;4.78;;
69534;SDS011;56754;51.568;5.048;2022-08-19T03:23:29;7.03;;;4.82;;
69534;SDS011;56754;51.568;5.048;2022-08-19T03:25:54;8.10;;;4.83;;
69534;SDS011;56754;51.568;5.048;2022-08-19T03:28:20;7.30;;;4.87;;
69534;SDS011;56754;51.568;5.048;2022-08-19T03:30:59;7.70;;;5.03;;
69534;SDS011;56754;51.568;5.048;2022-08-19T03:33:26;7.53;;;4.73;;
69534;SDS011;56754;51.568;5.048;2022-08-19T03:35:59;9.05;;;5.60;;
69534;SDS011;56754;51.568;5.048;2022-08-19T03:38:31;8.45;;;4.90;;
69534;SDS011;56754;51.568;5.048;2022-08-19T03:40:56;7.80;;;4.90;;
69534;SDS011;56754;51.568;5.048;2022-08-19T03:43:22;8.27;;;5.27;;
69534;SDS011;56754;51.568;5.048;2022-08-19T03:45:47;8.10;;;5.20;;
69534;SDS011;56754;51.568;5.048;2022-08-19T03:48:12;8.47;;;5.57;;
69534;SDS011;56754;51.568;5.048;2022-08-19T03:50:38;8.23;;;5.27;;
69534;SDS011;56754;51.568;5.048;2022-08-19T03:53:04;7.82;;;5.30;;
69534;SDS011;56754;51.568;5.048;2022-08-19T03:55:29;8.97;;;6.10;;
69534;SDS011;56754;51.568;5.048;2022-08-19T03:57:55;9.13;;;5.47;;
69534;SDS011;56754;51.568;5.048;2022-08-19T04:00:20;9.10;;;5.83;;
69534;SDS011;56754;51.568;5.048;2022-08-19T04:02:45;9.33;;;6.07;;
69534;SDS011;56754;51.568;5.048;2022-08-19T04:05:11;9.17;;;6.00;;
69534;SDS011;56754;51.568;5.048;2022-08-19T04:07:36;10.45;;;6.47;;
69534;SDS011;56754;51.568;5.048;2022-08-19T04:10:02;11.07;;;6.80;;
69534;SDS011;56754;51.568;5.048;2022-08-19T04:12:28;10.20;;;6.45;;
69534;SDS011;56754;51.568;5.048;2022-08-19T04:14:53;11.03;;;6.93;;
69534;SDS011;56754;51.568;5.048;2022-08-19T04:17:19;10.43;;;7.07;;
69534;SDS011;56754;51.568;5.048;2022-08-19T04:19:44;11.00;;;6.93;;
69534;SDS011;56754;51.568;5.048;2022-08-19T04:22:09;11.20;;;6.97;;
69534;SDS011;56754;51.568;5.048;2022-08-19T04:24:35;10.87;;;7.33;;
69534;SDS011;56754;51.568;5.048;2022-08-19T04:27:00;9.90;;;6.75;;
69534;SDS011;56754;51.568;5.048;2022-08-19T04:29:26;11.87;;;7.27;;
69534;SDS011;56754;51.568;5.048;2022-08-19T04:31:52;10.80;;;7.33;;
69534;SDS011;56754;51.568;5.048;2022-08-19T04:34:20;9.98;;;7.05;;
69534;SDS011;56754;51.568;5.048;2022-08-19T04:36:47;12.23;;;7.75;;
69534;SDS011;56754;51.568;5.048;2022-08-19T04:39:17;11.30;;;7.40;;
69534;SDS011;56754;51.568;5.048;2022-08-19T04:41:44;11.67;;;7.97;;
69534;SDS011;56754;51.568;5.048;2022-08-19T04:44:10;12.73;;;8.18;;
69534;SDS011;56754;51.568;5.048;2022-08-19T04:46:36;12.77;;;8.13;;
69534;SDS011;56754;51.568;5.048;2022-08-19T04:49:03;13.43;;;8.40;;
69534;SDS011;56754;51.568;5.048;2022-08-19T04:51:31;12.00;;;7.80;;
69534;SDS011;56754;51.568;5.048;2022-08-19T04:53:58;13.52;;;8.40;;
69534;SDS011;56754;51.568;5.048;2022-08-19T04:56:24;13.65;;;8.32;;
69534;SDS011;56754;51.568;5.048;2022-08-19T04:58:49;12.20;;;8.30;;
69534;SDS011;56754;51.568;5.048;2022-08-19T05:01:17;11.97;;;7.80;;
69534;SDS011;56754;51.568;5.048;2022-08-19T05:03:43;13.05;;;7.80;;
69534;SDS011;56754;51.568;5.048;2022-08-19T05:06:10;12.67;;;8.80;;
69534;SDS011;56754;51.568;5.048;2022-08-19T05:08:38;13.80;;;8.73;;
69534;SDS011;56754;51.568;5.048;2022-08-19T05:11:13;12.30;;;7.95;;
69534;SDS011;56754;51.568;5.048;2022-08-19T05:13:50;14.13;;;8.30;;
69534;SDS011;56754;51.568;5.048;2022-08-19T05:16:17;12.48;;;8.30;;
69534;SDS011;56754;51.568;5.048;2022-08-19T05:18:44;13.77;;;8.55;;
69534;SDS011;56754;51.568;5.048;2022-08-19T05:21:12;12.73;;;8.53;;
69534;SDS011;56754;51.568;5.048;2022-08-19T05:23:39;15.13;;;9.07;;
69534;SDS011;56754;51.568;5.048;2022-08-19T05:26:04;13.27;;;8.57;;
69534;SDS011;56754;51.568;5.048;2022-08-19T05:28:30;12.75;;;8.90;;
69534;SDS011;56754;51.568;5.048;2022-08-19T05:30:55;12.13;;;8.17;;
69534;SDS011;56754;51.568;5.048;2022-08-19T05:33:21;15.13;;;8.63;;
69534;SDS011;56754;51.568;5.048;2022-08-19T05:35:48;12.85;;;8.18;;
69534;SDS011;56754;51.568;5.048;2022-08-19T05:38:14;13.68;;;8.43;;
69534;SDS011;56754;51.568;5.048;2022-08-19T05:40:39;12.80;;;8.17;;
69534;SDS011;56754;51.568;5.048;2022-08-19T05:43:05;14.03;;;8.73;;
69534;SDS011;56754;51.568;5.048;2022-08-19T05:45:32;12.40;;;8.30;;
69534;SDS011;56754;51.568;5.048;2022-08-19T05:48:02;13.32;;;8.48;;
69534;SDS011;56754;51.568;5.048;2022-08-19T05:50:28;14.47;;;8.93;;
69534;SDS011;56754;51.568;5.048;2022-08-19T05:52:53;16.60;;;10.00;;
69534;SDS011;56754;51.568;5.048;2022-08-19T05:55:18;13.63;;;8.75;;
69534;SDS011;56754;51.568;5.048;2022-08-19T05:57:44;16.83;;;10.00;;
69534;SDS011;56754;51.568;5.048;2022-08-19T06:00:09;14.80;;;10.10;;
69534;SDS011;56754;51.568;5.048;2022-08-19T06:02:35;21.30;;;13.52;;
69534;SDS011;56754;51.568;5.048;2022-08-19T06:05:02;25.73;;;14.83;;
69534;SDS011;56754;51.568;5.048;2022-08-19T06:07:29;26.73;;;15.90;;
69534;SDS011;56754;51.568;5.048;2022-08-19T06:09:54;27.40;;;15.70;;
69534;SDS011;56754;51.568;5.048;2022-08-19T06:12:20;29.75;;;18.45;;
69534;SDS011;56754;51.568;5.048;2022-08-19T06:14:45;29.33;;;17.30;;
69534;SDS011;56754;51.568;5.048;2022-08-19T06:17:10;27.80;;;16.70;;
69534;SDS011;56754;51.568;5.048;2022-08-19T06:19:36;27.00;;;17.50;;
69534;SDS011;56754;51.568;5.048;2022-08-19T06:22:01;29.63;;;17.87;;
69534;SDS011;56754;51.568;5.048;2022-08-19T06:24:27;27.83;;;17.45;;
69534;SDS011;56754;51.568;5.048;2022-08-19T06:26:54;23.50;;;15.30;;
69534;SDS011;56754;51.568;5.048;2022-08-19T06:29:22;24.30;;;15.27;;
69534;SDS011;56754;51.568;5.048;2022-08-19T06:31:50;21.65;;;14.50;;
69534;SDS011;56754;51.568;5.048;2022-08-19T06:34:19;23.52;;;14.52;;
69534;SDS011;56754;51.568;5.048;2022-08-19T06:36:46;22.67;;;14.40;;
69534;SDS011;56754;51.568;5.048;2022-08-19T06:39:18;21.92;;;14.65;;
69534;SDS011;56754;51.568;5.048;2022-08-19T06:41:48;23.27;;;13.80;;
69534;SDS011;56754;51.568;5.048;2022-08-19T06:44:15;22.00;;;13.67;;
69534;SDS011;56754;51.568;5.048;2022-08-19T06:46:41;21.73;;;13.35;;
69534;SDS011;56754;51.568;5.048;2022-08-19T06:49:07;23.30;;;13.80;;
69534;SDS011;56754;51.568;5.048;2022-08-19T06:51:33;21.90;;;13.52;;
69534;SDS011;56754;51.568;5.048;2022-08-19T06:53:58;23.67;;;15.00;;
69534;SDS011;56754;51.568;5.048;2022-08-19T06:56:25;21.33;;;13.47;;
69534;SDS011;56754;51.568;5.048;2022-08-19T06:58:52;21.38;;;13.32;;
69534;SDS011;56754;51.568;5.048;2022-08-19T07:01:18;19.57;;;11.83;;
69534;SDS011;56754;51.568;5.048;2022-08-19T07:03:44;17.48;;;11.05;;
69534;SDS011;56754;51.568;5.048;2022-08-19T07:06:11;17.83;;;11.10;;
69534;SDS011;56754;51.568;5.048;2022-08-19T07:08:39;20.48;;;11.57;;
69534;SDS011;56754;51.568;5.048;2022-08-19T07:11:08;19.33;;;12.47;;
69534;SDS011;56754;51.568;5.048;2022-08-19T07:13:35;20.73;;;12.88;;
69534;SDS011;56754;51.568;5.048;2022-08-19T07:16:12;23.88;;;14.68;;
69534;SDS011;56754;51.568;5.048;2022-08-19T07:18:39;23.70;;;14.53;;
69534;SDS011;56754;51.568;5.048;2022-08-19T07:21:05;23.63;;;15.32;;
69534;SDS011;56754;51.568;5.048;2022-08-19T07:23:35;28.55;;;16.50;;
69534;SDS011;56754;51.568;5.048;2022-08-19T07:26:05;26.33;;;15.83;;
69534;SDS011;56754;51.568;5.048;2022-08-19T07:28:32;25.73;;;15.68;;
69534;SDS011;56754;51.568;5.048;2022-08-19T07:30:57;28.80;;;16.63;;
69534;SDS011;56754;51.568;5.048;2022-08-19T07:33:22;33.40;;;17.40;;
69534;SDS011;56754;51.568;5.048;2022-08-19T07:35:47;23.63;;;14.97;;
69534;SDS011;56754;51.568;5.048;2022-08-19T07:38:13;23.77;;;15.67;;
69534;SDS011;56754;51.568;5.048;2022-08-19T07:40:38;26.70;;;16.83;;
69534;SDS011;56754;51.568;5.048;2022-08-19T07:43:03;30.98;;;17.15;;
69534;SDS011;56754;51.568;5.048;2022-08-19T07:45:29;30.80;;;18.50;;
69534;SDS011;56754;51.568;5.048;2022-08-19T07:47:54;28.87;;;18.70;;
69534;SDS011;56754;51.568;5.048;2022-08-19T07:50:20;34.03;;;18.13;;
69534;SDS011;56754;51.568;5.048;2022-08-19T07:52:45;30.83;;;19.60;;
69534;SDS011;56754;51.568;5.048;2022-08-19T07:55:11;30.07;;;18.73;;
69534;SDS011;56754;51.568;5.048;2022-08-19T07:57:36;28.93;;;18.73;;
69534;SDS011;56754;51.568;5.048;2022-08-19T08:00:02;28.10;;;18.97;;
69534;SDS011;56754;51.568;5.048;2022-08-19T08:02:29;29.77;;;18.95;;
69534;SDS011;56754;51.568;5.048;2022-08-19T08:04:54;32.70;;;20.80;;
69534;SDS011;56754;51.568;5.048;2022-08-19T08:07:20;31.55;;;20.33;;
69534;SDS011;56754;51.568;5.048;2022-08-19T08:09:45;31.90;;;20.47;;
69534;SDS011;56754;51.568;5.048;2022-08-19T08:12:25;35.77;;;20.00;;
69534;SDS011;56754;51.568;5.048;2022-08-19T08:14:58;32.05;;;19.83;;
69534;SDS011;56754;51.568;5.048;2022-08-19T08:17:28;32.03;;;20.70;;
69534;SDS011;56754;51.568;5.048;2022-08-19T08:19:54;30.33;;;19.33;;
69534;SDS011;56754;51.568;5.048;2022-08-19T08:22:21;33.97;;;21.20;;
69534;SDS011;56754;51.568;5.048;2022-08-19T08:24:46;34.65;;;23.40;;
69534;SDS011;56754;51.568;5.048;2022-08-19T08:27:12;31.77;;;21.20;;
69534;SDS011;56754;51.568;5.048;2022-08-19T08:29:37;36.67;;;24.07;;
69534;SDS011;56754;51.568;5.048;2022-08-19T08:32:02;36.33;;;24.45;;
69534;SDS011;56754;51.568;5.048;2022-08-19T08:34:28;35.30;;;20.17;;
69534;SDS011;56754;51.568;5.048;2022-08-19T08:36:53;32.33;;;21.03;;
69534;SDS011;56754;51.568;5.048;2022-08-19T08:39:19;35.43;;;21.93;;
69534;SDS011;56754;51.568;5.048;2022-08-19T08:44:22;35.85;;;22.63;;
69534;SDS011;56754;51.568;5.048;2022-08-19T08:46:57;35.55;;;21.83;;
69534;SDS011;56754;51.568;5.048;2022-08-19T08:52:17;37.42;;;23.15;;
69534;SDS011;56754;51.568;5.048;2022-08-19T08:54:47;34.28;;;21.60;;
69534;SDS011;56754;51.568;5.048;2022-08-19T08:57:15;32.03;;;21.58;;
69534;SDS011;56754;51.568;5.048;2022-08-19T08:59:45;36.58;;;22.35;;
69534;SDS011;56754;51.568;5.048;2022-08-19T09:02:13;33.27;;;21.33;;
69534;SDS011;56754;51.568;5.048;2022-08-19T09:04:38;31.10;;;20.38;;
69534;SDS011;56754;51.568;5.048;2022-08-19T09:09:51;32.17;;;20.92;;
69534;SDS011;56754;51.568;5.048;2022-08-19T09:12:32;28.30;;;19.67;;
69534;SDS011;56754;51.568;5.048;2022-08-19T09:15:03;31.88;;;21.02;;
69534;SDS011;56754;51.568;5.048;2022-08-19T09:17:31;33.25;;;21.65;;
69534;SDS011;56754;51.568;5.048;2022-08-19T09:19:58;33.17;;;20.80;;
69534;SDS011;56754;51.568;5.048;2022-08-19T09:22:42;31.17;;;20.17;;
69534;SDS011;56754;51.568;5.048;2022-08-19T09:25:08;29.92;;;20.00;;
69534;SDS011;56754;51.568;5.048;2022-08-19T09:27:36;30.45;;;20.08;;
69534;SDS011;56754;51.568;5.048;2022-08-19T09:30:03;31.85;;;20.73;;
69534;SDS011;56754;51.568;5.048;2022-08-19T09:32:29;31.23;;;20.50;;
69534;SDS011;56754;51.568;5.048;2022-08-19T09:34:54;28.93;;;20.20;;
69534;SDS011;56754;51.568;5.048;2022-08-19T09:37:20;31.77;;;20.73;;
69534;SDS011;56754;51.568;5.048;2022-08-19T09:39:45;29.00;;;19.33;;
69534;SDS011;56754;51.568;5.048;2022-08-19T09:42:11;30.77;;;19.00;;
69534;SDS011;56754;51.568;5.048;2022-08-19T09:44:36;28.13;;;18.73;;
69534;SDS011;56754;51.568;5.048;2022-08-19T09:47:03;27.33;;;18.97;;
69534;SDS011;56754;51.568;5.048;2022-08-19T09:49:28;26.92;;;18.75;;
69534;SDS011;56754;51.568;5.048;2022-08-19T09:51:53;28.47;;;18.60;;
69534;SDS011;56754;51.568;5.048;2022-08-19T09:54:19;27.43;;;17.63;;
69534;SDS011;56754;51.568;5.048;2022-08-19T09:56:44;21.37;;;14.23;;
69534;SDS011;56754;51.568;5.048;2022-08-19T09:59:10;20.10;;;11.77;;
69534;SDS011;56754;51.568;5.048;2022-08-19T10:01:35;20.20;;;12.70;;
69534;SDS011;56754;51.568;5.048;2022-08-19T10:04:00;15.57;;;10.20;;
69534;SDS011;56754;51.568;5.048;2022-08-19T10:06:27;15.90;;;9.80;;
69534;SDS011;56754;51.568;5.048;2022-08-19T10:08:54;20.33;;;11.55;;
69534;SDS011;56754;51.568;5.048;2022-08-19T10:11:19;17.17;;;10.93;;
69534;SDS011;56754;51.568;5.048;2022-08-19T10:13:45;15.45;;;9.85;;
69534;SDS011;56754;51.568;5.048;2022-08-19T10:16:16;17.80;;;12.35;;
69534;SDS011;56754;51.568;5.048;2022-08-19T10:18:43;17.38;;;12.68;;
69534;SDS011;56754;51.568;5.048;2022-08-19T10:23:45;16.63;;;11.95;;
69534;SDS011;56754;51.568;5.048;2022-08-19T10:26:13;19.20;;;12.10;;
69534;SDS011;56754;51.568;5.048;2022-08-19T10:28:41;18.35;;;12.63;;
69534;SDS011;56754;51.568;5.048;2022-08-19T10:31:07;18.90;;;11.43;;
69534;SDS011;56754;51.568;5.048;2022-08-19T10:33:35;16.77;;;11.00;;
69534;SDS011;56754;51.568;5.048;2022-08-19T10:36:03;17.60;;;11.05;;
69534;SDS011;56754;51.568;5.048;2022-08-19T10:38:30;16.95;;;11.43;;
69534;SDS011;56754;51.568;5.048;2022-08-19T10:40:55;15.57;;;10.60;;
69534;SDS011;56754;51.568;5.048;2022-08-19T10:43:20;17.05;;;11.18;;
69534;SDS011;56754;51.568;5.048;2022-08-19T10:45:52;14.90;;;10.77;;
69534;SDS011;56754;51.568;5.048;2022-08-19T10:48:19;17.03;;;11.10;;
69534;SDS011;56754;51.568;5.048;2022-08-19T10:50:44;13.30;;;9.75;;
69534;SDS011;56754;51.568;5.048;2022-08-19T10:53:09;13.53;;;9.60;;
69534;SDS011;56754;51.568;5.048;2022-08-19T10:55:35;14.20;;;10.20;;
69534;SDS011;56754;51.568;5.048;2022-08-19T10:58:00;15.27;;;9.90;;
69534;SDS011;56754;51.568;5.048;2022-08-19T11:00:25;14.07;;;10.27;;
69534;SDS011;56754;51.568;5.048;2022-08-19T11:02:51;14.80;;;9.70;;
69534;SDS011;56754;51.568;5.048;2022-08-19T11:05:16;13.65;;;10.20;;
69534;SDS011;56754;51.568;5.048;2022-08-19T11:07:42;14.83;;;9.70;;
69534;SDS011;56754;51.568;5.048;2022-08-19T11:10:09;13.57;;;9.73;;
69534;SDS011;56754;51.568;5.048;2022-08-19T11:12:37;13.38;;;9.60;;
69534;SDS011;56754;51.568;5.048;2022-08-19T11:15:03;12.10;;;9.60;;
69534;SDS011;56754;51.568;5.048;2022-08-19T11:17:28;13.17;;;9.47;;
69534;SDS011;56754;51.568;5.048;2022-08-19T11:19:53;12.33;;;9.20;;
69534;SDS011;56754;51.568;5.048;2022-08-19T11:22:19;11.90;;;8.63;;
69534;SDS011;56754;51.568;5.048;2022-08-19T11:24:44;14.77;;;9.57;;
69534;SDS011;56754;51.568;5.048;2022-08-19T11:27:09;13.53;;;9.47;;
69534;SDS011;56754;51.568;5.048;2022-08-19T11:29:37;13.10;;;9.33;;
69534;SDS011;56754;51.568;5.048;2022-08-19T11:32:04;13.02;;;9.40;;
69534;SDS011;56754;51.568;5.048;2022-08-19T11:34:33;13.35;;;9.20;;
69534;SDS011;56754;51.568;5.048;2022-08-19T11:36:58;13.07;;;9.10;;
69534;SDS011;56754;51.568;5.048;2022-08-19T11:39:23;14.90;;;9.33;;
69534;SDS011;56754;51.568;5.048;2022-08-19T11:41:50;12.18;;;9.15;;
69534;SDS011;56754;51.568;5.048;2022-08-19T11:44:16;12.68;;;9.40;;
69534;SDS011;56754;51.568;5.048;2022-08-19T11:46:42;12.93;;;9.60;;
69534;SDS011;56754;51.568;5.048;2022-08-19T11:49:09;15.50;;;9.77;;
69534;SDS011;56754;51.568;5.048;2022-08-19T11:51:34;13.17;;;9.97;;
69534;SDS011;56754;51.568;5.048;2022-08-19T11:54:00;13.07;;;9.53;;
69534;SDS011;56754;51.568;5.048;2022-08-19T11:56:26;15.05;;;9.63;;
69534;SDS011;56754;51.568;5.048;2022-08-19T11:58:52;12.65;;;9.68;;
69534;SDS011;56754;51.568;5.048;2022-08-19T12:01:19;13.20;;;9.63;;
69534;SDS011;56754;51.568;5.048;2022-08-19T12:03:47;13.67;;;9.80;;
69534;SDS011;56754;51.568;5.048;2022-08-19T12:06:15;14.30;;;9.85;;
69534;SDS011;56754;51.568;5.048;2022-08-19T12:08:43;13.07;;;10.50;;
69534;SDS011;56754;51.568;5.048;2022-08-19T12:11:10;13.70;;;10.27;;
69534;SDS011;56754;51.568;5.048;2022-08-19T12:13:37;15.70;;;11.13;;
69534;SDS011;56754;51.568;5.048;2022-08-19T12:16:13;15.13;;;11.43;;
69534;SDS011;56754;51.568;5.048;2022-08-19T12:18:43;17.90;;;11.75;;
69534;SDS011;56754;51.568;5.048;2022-08-19T12:21:09;17.02;;;12.57;;
69534;SDS011;56754;51.568;5.048;2022-08-19T12:23:35;20.67;;;13.90;;
69534;SDS011;56754;51.568;5.048;2022-08-19T12:26:00;19.08;;;13.05;;
69534;SDS011;56754;51.568;5.048;2022-08-19T12:28:25;17.50;;;13.20;;
69534;SDS011;56754;51.568;5.048;2022-08-19T12:30:51;18.30;;;13.53;;
69534;SDS011;56754;51.568;5.048;2022-08-19T12:33:17;19.50;;;13.80;;
69534;SDS011;56754;51.568;5.048;2022-08-19T12:35:44;19.55;;;13.50;;
69534;SDS011;56754;51.568;5.048;2022-08-19T12:38:10;19.45;;;13.57;;
69534;SDS011;56754;51.568;5.048;2022-08-19T12:40:36;20.10;;;14.20;;
69534;SDS011;56754;51.568;5.048;2022-08-19T12:43:02;19.20;;;14.00;;
69534;SDS011;56754;51.568;5.048;2022-08-19T12:45:27;18.20;;;12.87;;
69534;SDS011;56754;51.568;5.048;2022-08-19T12:47:52;19.05;;;13.45;;
69534;SDS011;56754;51.568;5.048;2022-08-19T12:50:18;18.13;;;12.97;;
69534;SDS011;56754;51.568;5.048;2022-08-19T12:52:43;19.03;;;13.43;;
69534;SDS011;56754;51.568;5.048;2022-08-19T12:55:09;18.57;;;12.90;;
69534;SDS011;56754;51.568;5.048;2022-08-19T12:57:35;17.25;;;13.13;;
69534;SDS011;56754;51.568;5.048;2022-08-19T13:00:07;16.27;;;12.83;;
69534;SDS011;56754;51.568;5.048;2022-08-19T13:02:35;15.80;;;12.65;;
69534;SDS011;56754;51.568;5.048;2022-08-19T13:05:00;17.33;;;11.60;;
69534;SDS011;56754;51.568;5.048;2022-08-19T13:07:25;17.37;;;12.30;;
69534;SDS011;56754;51.568;5.048;2022-08-19T13:09:51;16.35;;;11.80;;
69534;SDS011;56754;51.568;5.048;2022-08-19T13:12:16;17.47;;;12.37;;
69534;SDS011;56754;51.568;5.048;2022-08-19T13:14:42;15.48;;;11.93;;
69534;SDS011;56754;51.568;5.048;2022-08-19T13:17:07;16.33;;;11.77;;
69534;SDS011;56754;51.568;5.048;2022-08-19T13:19:33;14.70;;;11.23;;
69534;SDS011;56754;51.568;5.048;2022-08-19T13:22:01;16.23;;;11.73;;
69534;SDS011;56754;51.568;5.048;2022-08-19T13:24:26;16.47;;;11.47;;
69534;SDS011;56754;51.568;5.048;2022-08-19T13:26:52;14.63;;;11.10;;
69534;SDS011;56754;51.568;5.048;2022-08-19T13:29:17;13.57;;;10.90;;
69534;SDS011;56754;51.568;5.048;2022-08-19T13:31:42;15.27;;;10.93;;
69534;SDS011;56754;51.568;5.048;2022-08-19T13:34:07;15.53;;;10.67;;
69534;SDS011;56754;51.568;5.048;2022-08-19T13:36:33;14.35;;;11.20;;
69534;SDS011;56754;51.568;5.048;2022-08-19T13:39:00;13.90;;;10.57;;
69534;SDS011;56754;51.568;5.048;2022-08-19T13:41:25;15.02;;;10.63;;
69534;SDS011;56754;51.568;5.048;2022-08-19T13:43:51;13.23;;;9.90;;
69534;SDS011;56754;51.568;5.048;2022-08-19T13:46:16;15.93;;;10.45;;
69534;SDS011;56754;51.568;5.048;2022-08-19T13:48:42;13.73;;;10.20;;
69534;SDS011;56754;51.568;5.048;2022-08-19T13:51:07;14.13;;;9.70;;
69534;SDS011;56754;51.568;5.048;2022-08-19T13:53:33;13.25;;;9.95;;
69534;SDS011;56754;51.568;5.048;2022-08-19T13:55:59;12.33;;;9.43;;
69534;SDS011;56754;51.568;5.048;2022-08-19T13:58:24;12.90;;;9.57;;
69534;SDS011;56754;51.568;5.048;2022-08-19T14:00:49;13.63;;;9.30;;
69534;SDS011;56754;51.568;5.048;2022-08-19T14:03:14;15.07;;;9.20;;
69534;SDS011;56754;51.568;5.048;2022-08-19T14:05:40;12.07;;;8.97;;
69534;SDS011;56754;51.568;5.048;2022-08-19T14:08:05;11.90;;;8.97;;
69534;SDS011;56754;51.568;5.048;2022-08-19T14:10:30;11.50;;;9.13;;
69534;SDS011;56754;51.568;5.048;2022-08-19T14:12:57;12.13;;;9.10;;
69534;SDS011;56754;51.568;5.048;2022-08-19T14:15:24;13.85;;;9.80;;
69534;SDS011;56754;51.568;5.048;2022-08-19T14:17:50;12.48;;;8.88;;
69534;SDS011;56754;51.568;5.048;2022-08-19T14:20:15;12.20;;;9.20;;
69534;SDS011;56754;51.568;5.048;2022-08-19T14:22:41;12.57;;;9.07;;
69534;SDS011;56754;51.568;5.048;2022-08-19T14:25:08;11.70;;;9.45;;
69534;SDS011;56754;51.568;5.048;2022-08-19T14:27:36;11.73;;;9.43;;
69534;SDS011;56754;51.568;5.048;2022-08-19T14:30:04;12.00;;;8.98;;
69534;SDS011;56754;51.568;5.048;2022-08-19T14:32:31;13.20;;;9.77;;
69534;SDS011;56754;51.568;5.048;2022-08-19T14:34:56;11.87;;;9.00;;
69534;SDS011;56754;51.568;5.048;2022-08-19T14:37:22;11.90;;;8.83;;
69534;SDS011;56754;51.568;5.048;2022-08-19T14:39:47;12.63;;;9.70;;
69534;SDS011;56754;51.568;5.048;2022-08-19T14:42:12;12.63;;;9.15;;
69534;SDS011;56754;51.568;5.048;2022-08-19T14:44:38;10.87;;;8.47;;